Time;durP1;ratioP1;P1;durP2;ratioP2;P2;SDS_P1;SDS_P2;PMS_P1;PMS_P2;Temp;Humidity;BMP_temperature;BMP_pressure;BME280_temperature;BME280_humidity;BME280_pressure;Samples;Min_cycle;Max_cycle;Signal;HPM_P1;HPM_P2
2022/07/27 00:04:08;;;;;;;;;;;;;;;;;;10499150;28;19928;-68
2022/07/27 00:09:11;;;;;;;;;;;;;;;;;;10498823;28;19931;-68
2022/07/27 00:14:13;;;;;;;;;;;;;;;;;;10498879;28;19970;-69
2022/07/27 00:19:15;;;;;;;;;;;;;;;;;;10498819;28;19931;-68
2022/07/27 00:24:17;;;;;;;;;;;;;;;;;;10498717;28;19931;-69
2022/07/27 00:29:19;;;;;;;;;;;;;;;;;;10498624;28;19924;-69
2022/07/27 00:34:21;;;;;;;;;;;;;;;;;;10498464;28;19925;-69
2022/07/27 00:39:24;;;;;;;;;;;;;;;;;;10498230;28;19931;-69
2022/07/27 00:44:26;;;;;;;;;;;;;;;;;;10497691;28;20364;-69
2022/07/27 00:49:28;;;;;;;;;;;;;;;;;;10497525;28;19970;-68
2022/07/27 00:54:30;;;;;;;;;;;;;;;;;;10498050;28;19977;-68
2022/07/27 00:59:32;;;;;;;;;;;;;;;;;;10497227;28;20287;-68
2022/07/27 01:04:34;;;;;;;;;;;;;;;;;;10497868;28;19971;-68
2022/07/27 01:14:57;;;;;;;;;;;;;;;;;;10512528;23;19931;-63
2022/07/27 01:19:59;;;;;;;;;;;;;;;;;;10505319;28;19928;-64
2022/07/27 01:25:01;;;;;;;;;;;;;;;;;;10487904;28;19963;-63
2022/07/27 01:30:25;;;;;;;;;;;;;;;;;;10504792;28;19928;-63
2022/07/27 01:35:25;;;;;;;;;;;;;;;;;;10503977;28;19931;-63
2022/07/27 01:40:27;;;;;;;;;;;;;;;;;;10503916;28;20283;-64
2022/07/27 01:45:30;;;;;;;;;;;;;;;;;;10504368;28;19925;-63
2022/07/27 01:50:32;;;;;;;;;;;;;;;;;;10503534;28;20261;-63
2022/07/27 01:55:34;;;;;;;;;;;;;;;;;;10503897;28;19935;-63
2022/07/27 02:00:39;;;;;;;;;;;;;;;;;;10503660;28;20280;-63
2022/07/27 02:05:41;;;;;;;;;;;;;;;;;;10502949;28;19932;-63
2022/07/27 02:16:04;;;;;;;;;;;;;;;;;;10530890;28;19931;-64
2022/07/27 02:21:17;;;;;;;;;;;;;;;;;;10526661;28;19924;-64
2022/07/27 02:26:19;;;;;;;;;;;;;;;;;;10544624;28;19924;-64
2022/07/27 02:31:21;;;;;;;;;;;;;;;;;;10544430;28;19924;-63
2022/07/27 02:36:23;;;;;;;;;;;;;;;;;;10544045;28;19928;-64
2022/07/27 02:41:25;;;;;;;;;;;;;;;;;;10543982;28;19924;-64
2022/07/27 02:46:28;;;;;;;;;;;;;;;;;;10543736;28;19924;-63
2022/07/27 02:51:30;;;;;;;;;;;;;;;;;;10543560;28;19946;-64
2022/07/27 02:56:32;;;;;;;;;;;;;;;;;;10543362;28;19924;-63
2022/07/27 03:01:34;;;;;;;;;;;;;;;;;;10543047;28;19951;-63
2022/07/27 03:06:36;;;;;;;;;;;;;;;;;;10524441;28;20277;-64
2022/07/27 03:11:38;;;;;;;;;;;;;;;;;;10542832;28;19924;-63
2022/07/27 03:16:40;;;;;;;;;;;;;;;;;;10541935;28;19931;-63
2022/07/27 03:21:42;;;;;;;;;;;;;;;;;;10542357;28;19932;-64
2022/07/27 03:26:45;;;;;;;;;;;;;;;;;;10542311;28;19928;-64
2022/07/27 03:31:47;;;;;;;;;;;;;;;;;;10541744;28;19924;-64
2022/07/27 03:36:49;;;;;;;;;;;;;;;;;;10541064;28;19947;-63
2022/07/27 03:41:52;;;;;;;;;;;;;;;;;;10541637;28;19931;-63
2022/07/27 03:46:54;;;;;;;;;;;;;;;;;;10540807;28;20330;-63
2022/07/27 03:51:56;;;;;;;;;;;;;;;;;;10541298;28;19935;-63
2022/07/27 03:56:58;;;;;;;;;;;;;;;;;;10541048;28;19924;-63
2022/07/27 04:02:00;;;;;;;;;;;;;;;;;;10522456;28;20286;-63
2022/07/27 04:07:02;;;;;;;;;;;;;;;;;;10540936;28;19924;-63
2022/07/27 04:12:04;;;;;;;;;;;;;;;;;;10540134;28;19928;-63
2022/07/27 04:17:06;;;;;;;;;;;;;;;;;;10539740;28;20393;-63
2022/07/27 04:22:08;;;;;;;;;;;;;;;;;;10540523;28;19924;-64
2022/07/27 04:27:10;;;;;;;;;;;;;;;;;;10539669;28;20375;-63
2022/07/27 04:32:12;;;;;;;;;;;;;;;;;;10540305;28;19925;-64
2022/07/27 04:37:14;;;;;;;;;;;;;;;;;;10540321;28;19928;-63
2022/07/27 04:42:17;;;;;;;;;;;;;;;;;;10541230;28;19931;-63
2022/07/27 04:47:19;;;;;;;;;;;;;;;;;;10548915;28;19928;-63
2022/07/27 04:52:21;;;;;;;;;;;;;;;;;;10548369;28;19928;-63
2022/07/27 04:57:27;;;;;;;;;;;;;;;;;;10548120;28;19930;-63
2022/07/27 05:02:30;;;;;;;;;;;;;;;;;;10548094;28;19924;-63
2022/07/27 05:07:32;;;;;;;;;;;;;;;;;;10547681;28;19924;-63
2022/07/27 05:12:34;;;;;;;;;;;;;;;;;;10547712;28;19928;-63
2022/07/27 05:17:36;;;;;;;;;;;;;;;;;;10547135;28;20252;-63
2022/07/27 05:22:38;;;;;;;;;;;;;;;;;;10546483;28;20283;-63
2022/07/27 05:27:41;;;;;;;;;;;;;;;;;;10547002;28;19924;-63
2022/07/27 05:32:55;;;;;;;;;;;;;;;;;;10546867;28;19935;-63
2022/07/27 05:37:57;;;;;;;;;;;;;;;;;;10545794;28;19932;-64
2022/07/27 05:42:59;;;;;;;;;;;;;;;;;;10546342;28;19924;-64
2022/07/27 05:48:01;;;;;;;;;;;;;;;;;;10546125;28;19932;-63
2022/07/27 05:53:04;;;;;;;;;;;;;;;;;;10545690;28;19938;-63
2022/07/27 05:58:06;;;;;;;;;;;;;;;;;;10545716;28;19943;-63
2022/07/27 06:03:08;;;;;;;;;;;;;;;;;;10544918;28;20375;-63
2022/07/27 06:08:11;;;;;;;;;;;;;;;;;;10545894;28;19956;-63
2022/07/27 06:13:13;;;;;;;;;;;;;;;;;;10544817;28;20382;-64
2022/07/27 06:18:17;;;;;;;;;;;;;;;;;;10544282;28;20297;-63
2022/07/27 06:23:19;;;;;;;;;;;;;;;;;;10544158;28;20275;-63
2022/07/27 06:28:21;;;;;;;;;;;;;;;;;;10543989;28;19924;-63
2022/07/27 06:33:30;;;;;;;;;;;;;;;;;;10543705;28;20286;-63
2022/07/27 06:38:32;;;;;;;;;;;;;;;;;;10526211;28;19924;-63
2022/07/27 06:43:34;;;;;;;;;;;;;;;;;;10543329;28;19950;-63
2022/07/27 06:48:36;;;;;;;;;;;;;;;;;;10525863;28;19924;-63
2022/07/27 06:53:38;;;;;;;;;;;;;;;;;;10543549;28;20019;-64
2022/07/27 06:58:40;;;;;;;;;;;;;;;;;;10542647;28;19932;-63
2022/07/27 07:03:43;;;;;;;;;;;;;;;;;;10542489;28;19930;-63
2022/07/27 07:08:45;;;;;;;;;;;;;;;;;;10542331;28;19928;-64
2022/07/27 07:13:47;;;;;;;;;;;;;;;;;;10524046;28;19924;-63
2022/07/27 07:18:49;;;;;;;;;;;;;;;;;;10542537;28;19924;-64
2022/07/27 07:23:53;;;;;;;;;;;;;;;;;;10542348;28;19924;-63
2022/07/27 07:28:56;;;;;;;;;;;;;;;;;;10541586;28;19928;-64
2022/07/27 07:33:58;;;;;;;;;;;;;;;;;;10541990;28;19924;-63
2022/07/27 07:39:00;;;;;;;;;;;;;;;;;;10541141;28;19928;-63
2022/07/27 07:44:02;;;;;;;;;;;;;;;;;;10541017;28;19924;-63
2022/07/27 07:49:05;;;;;;;;;;;;;;;;;;10541654;28;19928;-64
2022/07/27 07:54:07;;;;;;;;;;;;;;;;;;10541321;28;19924;-64
2022/07/27 07:59:09;;;;;;;;;;;;;;;;;;10541135;28;19931;-64
2022/07/27 08:04:12;;;;;;;;;;;;;;;;;;10541522;28;20014;-63
2022/07/27 08:09:15;;;;;;;;;;;;;;;;;;10541087;28;20022;-64
2022/07/27 08:14:17;;;;;;;;;;;;;;;;;;10540447;28;19964;-64
2022/07/27 08:19:19;;;;;;;;;;;;;;;;;;10539966;28;20283;-64
2022/07/27 08:24:21;;;;;;;;;;;;;;;;;;10540544;28;19924;-64
2022/07/27 08:29:24;;;;;;;;;;;;;;;;;;10540387;28;19925;-64
2022/07/27 08:34:26;;;;;;;;;;;;;;;;;;10539701;28;19946;-63
2022/07/27 08:39:28;;;;;;;;;;;;;;;;;;10521600;28;20332;-63
2022/07/27 08:44:50;;;;;;;;;;;;;;;;;;10540090;28;19974;-64
2022/07/27 08:49:52;;;;;;;;;;;;;;;;;;10540042;28;19939;-64
2022/07/27 08:54:54;;;;;;;;;;;;;;;;;;10539991;28;19978;-64
2022/07/27 08:59:56;;;;;;;;;;;;;;;;;;10539801;28;19930;-64
2022/07/27 09:04:58;;;;;;;;;;;;;;;;;;10539110;28;19924;-64
2022/07/27 09:10:00;;;;;;;;;;;;;;;;;;10538930;28;20390;-64
2022/07/27 09:15:02;;;;;;;;;;;;;;;;;;10538681;28;20420;-64
2022/07/27 09:20:04;;;;;;;;;;;;;;;;;;10539337;28;19936;-64
2022/07/27 09:25:07;;;;;;;;;;;;;;;;;;10539352;28;19931;-64
2022/07/27 09:30:09;;;;;;;;;;;;;;;;;;10542518;28;19924;-64
2022/07/27 09:35:11;;;;;;;;;;;;;;;;;;10546871;28;19924;-64
2022/07/27 09:40:13;;;;;;;;;;;;;;;;;;10546703;28;19924;-63
2022/07/27 09:45:16;;;;;;;;;;;;;;;;;;10545822;28;19931;-64
2022/07/27 09:50:18;;;;;;;;;;;;;;;;;;10545635;28;19938;-63
2022/07/27 09:55:20;;;;;;;;;;;;;;;;;;10545230;28;20367;-64
2022/07/27 10:00:22;;;;;;;;;;;;;;;;;;10545859;28;19924;-64
2022/07/27 10:05:24;;;;;;;;;;;;;;;;;;10545682;28;19931;-64
2022/07/27 10:10:27;;;;;;;;;;;;;;;;;;10544741;28;19930;-64
2022/07/27 10:15:29;;;;;;;;;;;;;;;;;;10544565;28;19924;-64
2022/07/27 10:20:31;;;;;;;;;;;;;;;;;;10545573;28;19931;-64
2022/07/27 10:25:33;;;;;;;;;;;;;;;;;;10544763;28;19930;-64
2022/07/27 10:30:39;;;;;;;;;;;;;;;;;;10544004;28;19932;-64
2022/07/27 10:35:41;;;;;;;;;;;;;;;;;;10544335;28;19973;-64
2022/07/27 10:40:43;;;;;;;;;;;;;;;;;;10543245;28;19931;-64
2022/07/27 10:45:45;;;;;;;;;;;;;;;;;;10544007;28;19939;-65
2022/07/27 10:51:00;;;;;;;;;;;;;;;;;;10543823;28;19930;-64
2022/07/27 10:56:03;;;;;;;;;;;;;;;;;;10543578;28;19924;-64
2022/07/27 11:01:07;;;;;;;;;;;;;;;;;;10543414;28;19928;-64
2022/07/27 11:06:11;;;;;;;;;;;;;;;;;;10542528;28;20016;-64
2022/07/27 11:11:33;;;;;;;;;;;;;;;;;;10542934;28;19924;-64
2022/07/27 11:16:35;;;;;;;;;;;;;;;;;;10534136;28;19932;-64
2022/07/27 11:21:53;;;;;;;;;;;;;;;;;;10541960;28;19924;-64
2022/07/27 11:26:55;;;;;;;;;;;;;;;;;;10542312;28;19935;-64
2022/07/27 11:31:59;;;;;;;;;;;;;;;;;;10541531;28;19923;-64
2022/07/27 11:37:01;;;;;;;;;;;;;;;;;;10541935;28;19970;-64
2022/07/27 11:42:04;;;;;;;;;;;;;;;;;;10541148;28;20282;-64
2022/07/27 11:47:10;;;;;;;;;;;;;;;;;;10541658;28;19974;-64
2022/07/27 11:52:12;;;;;;;;;;;;;;;;;;10541208;28;19924;-64
2022/07/27 11:57:17;;;;;;;;;;;;;;;;;;10541145;28;19928;-64
2022/07/27 12:02:20;;;;;;;;;;;;;;;;;;10542082;28;19954;-64
2022/07/27 12:07:23;;;;;;;;;;;;;;;;;;10522969;28;19971;-65
2022/07/27 12:12:25;;;;;;;;;;;;;;;;;;10540132;28;19924;-65
2022/07/27 12:17:27;;;;;;;;;;;;;;;;;;10540466;28;19924;-64
2022/07/27 12:22:29;;;;;;;;;;;;;;;;;;10539964;28;20287;-64
2022/07/27 12:27:31;;;;;;;;;;;;;;;;;;10539919;28;20290;-64
2022/07/27 12:32:34;;;;;;;;;;;;;;;;;;10539826;28;19947;-65
2022/07/27 12:37:41;;;;;;;;;;;;;;;;;;10532070;28;19928;-64
2022/07/27 12:42:43;;;;;;;;;;;;;;;;;;10522397;28;19930;-65
2022/07/27 12:47:45;;;;;;;;;;;;;;;;;;10540113;28;19924;-64
2022/07/27 12:52:47;;;;;;;;;;;;;;;;;;10539411;28;20310;-64
2022/07/27 12:57:50;;;;;;;;;;;;;;;;;;10539869;28;19954;-64
2022/07/27 13:02:57;;;;;;;;;;;;;;;;;;10523841;28;19955;-64
2022/07/27 13:07:59;;;;;;;;;;;;;;;;;;10547994;28;19924;-65
2022/07/27 13:13:01;;;;;;;;;;;;;;;;;;10529555;28;19924;-65
2022/07/27 13:18:03;;;;;;;;;;;;;;;;;;10547560;28;19924;-64
2022/07/27 13:23:05;;;;;;;;;;;;;;;;;;10547401;28;19928;-65
2022/07/27 13:28:07;;;;;;;;;;;;;;;;;;10554280;22;19928;-69
2022/07/27 13:33:09;;;;;;;;;;;;;;;;;;10547077;28;19925;-69
2022/07/27 13:38:12;;;;;;;;;;;;;;;;;;10546719;28;19924;-69
2022/07/27 13:43:18;;;;;;;;;;;;;;;;;;10546525;28;19928;-69
2022/07/27 13:48:20;;;;;;;;;;;;;;;;;;10546346;28;19924;-69
2022/07/27 13:53:23;;;;;;;;;;;;;;;;;;10546181;28;19924;-69
2022/07/27 13:58:25;;;;;;;;;;;;;;;;;;10545365;28;20359;-69
2022/07/27 14:03:27;;;;;;;;;;;;;;;;;;10545819;28;19935;-69
2022/07/27 14:08:29;;;;;;;;;;;;;;;;;;10544517;28;19931;-69
2022/07/27 14:13:31;;;;;;;;;;;;;;;;;;10545413;28;19923;-69
2022/07/27 14:18:33;;;;;;;;;;;;;;;;;;10545138;28;20318;-69
2022/07/27 14:23:35;;;;;;;;;;;;;;;;;;10544436;28;20370;-69
2022/07/27 14:28:37;;;;;;;;;;;;;;;;;;10544058;28;20282;-68
2022/07/27 14:33:40;;;;;;;;;;;;;;;;;;10544010;28;20357;-69
2022/07/27 14:38:43;;;;;;;;;;;;;;;;;;10544339;28;19928;-69
2022/07/27 14:43:45;;;;;;;;;;;;;;;;;;10543548;28;19967;-69
2022/07/27 14:48:47;;;;;;;;;;;;;;;;;;10542858;28;19935;-69
2022/07/27 14:54:06;;;;;;;;;;;;;;;;;;10543176;28;19997;-69
2022/07/27 14:59:08;;;;;;;;;;;;;;;;;;10542906;28;20371;-69
2022/07/27 15:04:11;;;;;;;;;;;;;;;;;;10543376;28;19970;-69
2022/07/27 15:09:13;;;;;;;;;;;;;;;;;;10543204;28;19924;-69
2022/07/27 15:14:15;;;;;;;;;;;;;;;;;;10543167;28;19924;-69
2022/07/27 15:19:17;;;;;;;;;;;;;;;;;;10543489;28;19937;-69
2022/07/27 15:24:21;;;;;;;;;;;;;;;;;;10542706;28;19924;-69
2022/07/27 15:29:23;;;;;;;;;;;;;;;;;;10541607;28;19928;-69
2022/07/27 15:34:25;;;;;;;;;;;;;;;;;;10542305;28;19928;-69
2022/07/27 15:39:27;;;;;;;;;;;;;;;;;;10541542;28;19951;-69
2022/07/27 15:44:29;;;;;;;;;;;;;;;;;;10541244;28;20366;-68
2022/07/27 15:49:31;;;;;;;;;;;;;;;;;;10541666;28;19924;-69
2022/07/27 15:54:33;;;;;;;;;;;;;;;;;;10540286;28;19928;-69
2022/07/27 15:59:39;;;;;;;;;;;;;;;;;;10540706;28;20010;-69
2022/07/27 16:04:41;;;;;;;;;;;;;;;;;;10541429;28;19932;-69
2022/07/27 16:09:44;;;;;;;;;;;;;;;;;;10540427;28;20445;-68
2022/07/27 16:14:46;;;;;;;;;;;;;;;;;;10540893;28;19924;-69
2022/07/27 16:19:48;;;;;;;;;;;;;;;;;;10539964;28;19924;-69
2022/07/27 16:24:50;;;;;;;;;;;;;;;;;;10540674;28;19924;-69
2022/07/27 16:29:52;;;;;;;;;;;;;;;;;;10540198;28;20006;-69
2022/07/27 16:34:54;;;;;;;;;;;;;;;;;;10539740;28;19946;-69
2022/07/27 16:39:56;;;;;;;;;;;;;;;;;;10543787;28;20371;-69
2022/07/27 16:44:58;;;;;;;;;;;;;;;;;;10547874;28;19932;-69
2022/07/27 16:50:00;;;;;;;;;;;;;;;;;;10548158;28;19924;-70
2022/07/27 16:55:02;;;;;;;;;;;;;;;;;;10546805;28;20398;-69
2022/07/27 17:00:05;;;;;;;;;;;;;;;;;;10548298;28;19924;-69
2022/07/27 17:05:08;;;;;;;;;;;;;;;;;;10548188;28;19943;-69
2022/07/27 17:10:10;;;;;;;;;;;;;;;;;;10547330;28;19998;-68
2022/07/27 17:15:12;;;;;;;;;;;;;;;;;;10546627;28;19924;-69
2022/07/27 17:20:14;;;;;;;;;;;;;;;;;;10546929;28;19924;-69
2022/07/27 17:25:17;;;;;;;;;;;;;;;;;;10546790;28;20363;-69
2022/07/27 17:30:19;;;;;;;;;;;;;;;;;;10546931;28;19931;-69
2022/07/27 17:35:21;;;;;;;;;;;;;;;;;;10546418;28;20291;-69
2022/07/27 17:40:23;;;;;;;;;;;;;;;;;;10546186;28;19924;-68
2022/07/27 17:45:25;;;;;;;;;;;;;;;;;;10546026;28;19928;-68
2022/07/27 17:50:27;;;;;;;;;;;;;;;;;;10545335;28;19934;-69
2022/07/27 17:55:29;;;;;;;;;;;;;;;;;;10545619;28;19924;-69
2022/07/27 18:00:31;;;;;;;;;;;;;;;;;;10545363;28;20397;-69
2022/07/27 18:05:33;;;;;;;;;;;;;;;;;;10545857;28;19932;-68
2022/07/27 18:10:36;;;;;;;;;;;;;;;;;;10545661;28;19930;-68
2022/07/27 18:15:45;;;;;;;;;;;;;;;;;;10544854;28;19931;-68
2022/07/27 18:20:50;;;;;;;;;;;;;;;;;;10544534;28;20382;-69
2022/07/27 18:25:52;;;;;;;;;;;;;;;;;;10545385;28;19924;-68
2022/07/27 18:30:54;;;;;;;;;;;;;;;;;;10544022;28;19947;-68
2022/07/27 18:35:57;;;;;;;;;;;;;;;;;;10544876;28;19924;-68
2022/07/27 18:40:59;;;;;;;;;;;;;;;;;;10543225;28;19924;-68
2022/07/27 18:46:01;;;;;;;;;;;;;;;;;;10543563;28;19924;-69
2022/07/27 18:51:05;;;;;;;;;;;;;;;;;;10542078;28;20405;-68
2022/07/27 18:56:07;;;;;;;;;;;;;;;;;;10543809;28;19927;-68
2022/07/27 19:01:09;;;;;;;;;;;;;;;;;;10541607;28;19924;-68
2022/07/27 19:06:11;;;;;;;;;;;;;;;;;;10543551;28;19983;-68
2022/07/27 19:11:18;;;;;;;;;;;;;;;;;;10542588;28;20437;-69
2022/07/27 19:16:21;;;;;;;;;;;;;;;;;;10543024;28;19924;-68
2022/07/27 19:21:23;;;;;;;;;;;;;;;;;;10542669;28;19930;-69
2022/07/27 19:26:25;;;;;;;;;;;;;;;;;;10542649;28;19931;-69
2022/07/27 19:31:27;;;;;;;;;;;;;;;;;;10541837;28;19924;-68
2022/07/27 19:36:29;;;;;;;;;;;;;;;;;;10542209;28;20378;-68
2022/07/27 19:41:31;;;;;;;;;;;;;;;;;;10541994;28;19931;-69
2022/07/27 19:46:33;;;;;;;;;;;;;;;;;;10541972;28;19931;-68
2022/07/27 19:51:35;;;;;;;;;;;;;;;;;;10541087;28;19931;-68
2022/07/27 19:56:37;;;;;;;;;;;;;;;;;;10542049;28;19928;-69
2022/07/27 20:01:40;;;;;;;;;;;;;;;;;;10541390;28;19931;-68
2022/07/27 20:06:42;;;;;;;;;;;;;;;;;;10540606;28;20378;-68
2022/07/27 20:11:44;;;;;;;;;;;;;;;;;;10540894;28;19924;-69
2022/07/27 20:16:47;;;;;;;;;;;;;;;;;;10540925;28;19924;-68
2022/07/27 20:21:49;;;;;;;;;;;;;;;;;;10540102;28;19924;-68
2022/07/27 20:26:51;;;;;;;;;;;;;;;;;;10540022;28;19924;-68
2022/07/27 20:31:54;;;;;;;;;;;;;;;;;;10540748;28;19924;-68
2022/07/27 20:36:56;;;;;;;;;;;;;;;;;;10539725;28;19924;-68
2022/07/27 20:41:58;;;;;;;;;;;;;;;;;;10540322;28;19938;-68
2022/07/27 20:47:00;;;;;;;;;;;;;;;;;;10540214;28;19924;-68
2022/07/27 20:52:02;;;;;;;;;;;;;;;;;;10539699;28;20375;-68
2022/07/27 20:57:05;;;;;;;;;;;;;;;;;;10539289;28;19925;-68
2022/07/27 21:02:07;;;;;;;;;;;;;;;;;;10540142;28;19931;-68
2022/07/27 21:07:09;;;;;;;;;;;;;;;;;;10539391;28;20370;-68
2022/07/27 21:12:13;;;;;;;;;;;;;;;;;;10539593;28;19924;-68
2022/07/27 21:17:15;;;;;;;;;;;;;;;;;;10539717;28;19930;-69
2022/07/27 21:22:17;;;;;;;;;;;;;;;;;;10539438;28;19924;-69
2022/07/27 21:27:19;;;;;;;;;;;;;;;;;;10544730;28;20378;-68
2022/07/27 21:32:22;;;;;;;;;;;;;;;;;;10546978;28;19924;-69
2022/07/27 21:37:24;;;;;;;;;;;;;;;;;;10547106;28;19925;-68
2022/07/27 21:42:26;;;;;;;;;;;;;;;;;;10546771;28;19924;-68
2022/07/27 21:47:29;;;;;;;;;;;;;;;;;;10545394;28;20366;-68
2022/07/27 21:52:31;;;;;;;;;;;;;;;;;;10545759;28;20359;-68
2022/07/27 21:57:34;;;;;;;;;;;;;;;;;;10546106;28;19924;-68
2022/07/27 22:02:36;;;;;;;;;;;;;;;;;;10545997;28;19931;-68
2022/07/27 22:07:38;;;;;;;;;;;;;;;;;;10545793;28;19935;-68
2022/07/27 22:12:40;;;;;;;;;;;;;;;;;;10545585;28;19931;-68
2022/07/27 22:17:42;;;;;;;;;;;;;;;;;;10545439;28;19931;-68
2022/07/27 22:22:49;;;;;;;;;;;;;;;;;;10544456;28;20015;-68
2022/07/27 22:27:52;;;;;;;;;;;;;;;;;;10544931;28;19931;-68
2022/07/27 22:32:54;;;;;;;;;;;;;;;;;;10544062;28;20397;-69
2022/07/27 22:37:56;;;;;;;;;;;;;;;;;;10543822;28;20256;-68
2022/07/27 22:42:58;;;;;;;;;;;;;;;;;;10543733;28;19950;-69
2022/07/27 22:48:00;;;;;;;;;;;;;;;;;;10543514;28;20367;-68
2022/07/27 22:53:02;;;;;;;;;;;;;;;;;;10543298;28;20295;-68
2022/07/27 22:58:04;;;;;;;;;;;;;;;;;;10543038;28;19924;-68
2022/07/27 23:03:06;;;;;;;;;;;;;;;;;;10542920;28;20397;-68
2022/07/27 23:08:09;;;;;;;;;;;;;;;;;;10542659;28;20314;-68
2022/07/27 23:13:11;;;;;;;;;;;;;;;;;;10543110;28;19924;-68
2022/07/27 23:18:13;;;;;;;;;;;;;;;;;;10542245;28;20294;-68
2022/07/27 23:23:15;;;;;;;;;;;;;;;;;;10542103;28;20355;-68
2022/07/27 23:28:18;;;;;;;;;;;;;;;;;;10541790;28;19979;-68
2022/07/27 23:33:20;;;;;;;;;;;;;;;;;;10542085;28;19946;-68
2022/07/27 23:38:22;;;;;;;;;;;;;;;;;;10540295;28;19924;-68
2022/07/27 23:43:24;;;;;;;;;;;;;;;;;;10542006;28;19924;-68
2022/07/27 23:48:26;;;;;;;;;;;;;;;;;;10540783;28;19931;-68
2022/07/27 23:53:29;;;;;;;;;;;;;;;;;;10541625;28;19958;-68
2022/07/27 23:58:31;;;;;;;;;;;;;;;;;;10540701;28;20393;-68
